Time;durP1;ratioP1;P1;durP2;ratioP2;P2;SDS_P1;SDS_P2;PMS_P1;PMS_P2;Temp;Humidity;BMP_temperature;BMP_pressure;BME280_temperature;BME280_humidity;BME280_pressure;Samples;Min_cycle;Max_cycle;Signal;HPM_P1;HPM_P2
2022/03/03 00:01:59;;;;;;;9.07;6.50;;;;;;;0.73;65.40;96165.63;5092724;28;20031;-66
2022/03/03 00:04:25;;;;;;;6.70;5.40;;;;;;;0.74;65.09;96159.66;5092972;28;20095;-67
2022/03/03 00:06:51;;;;;;;9.35;6.10;;;;;;;0.75;65.45;96161.34;5092874;28;20442;-68
2022/03/03 00:09:16;;;;;;;9.65;6.30;;;;;;;0.75;64.90;96163.06;5092825;28;20016;-68
2022/03/03 00:11:42;;;;;;;8.60;6.03;;;;;;;0.83;64.74;96156.16;5092784;28;20024;-65
2022/03/03 00:14:08;;;;;;;11.27;6.47;;;;;;;0.80;65.04;96161.31;5092626;28;20028;-65
2022/03/03 00:16:33;;;;;;;8.60;5.20;;;;;;;0.80;64.95;96163.91;5092677;28;20047;-65
2022/03/03 00:18:59;;;;;;;8.10;6.15;;;;;;;0.75;65.51;96161.34;5092616;28;20031;-67
2022/03/03 00:21:25;;;;;;;9.02;5.88;;;;;;;0.73;66.61;96157.91;5092382;28;20036;-67
2022/03/03 00:23:51;;;;;;;9.38;5.50;;;;;;;0.79;66.31;96159.63;5095355;28;20020;-65
2022/03/03 00:26:17;;;;;;;9.43;5.95;;;;;;;0.80;66.96;96161.31;5096418;28;20042;-66
2022/03/03 00:28:43;;;;;;;8.88;5.90;;;;;;;0.71;68.16;96162.25;5096465;28;20027;-68
2022/03/03 00:31:09;;;;;;;8.00;5.93;;;;;;;0.69;67.87;96161.38;5096317;28;20062;-67
2022/03/03 00:33:34;;;;;;;9.18;5.55;;;;;;;0.69;67.15;96156.22;5096311;28;20024;-67
2022/03/03 00:36:00;;;;;;;8.95;5.70;;;;;;;0.66;67.26;96153.66;5096441;28;20606;-67
2022/03/03 00:38:26;;;;;;;7.15;5.22;;;;;;;0.65;66.06;96146.81;5096303;28;20024;-67
2022/03/03 00:40:52;;;;;;;8.93;6.18;;;;;;;0.64;66.02;96147.69;5096179;28;20024;-67
2022/03/03 00:43:17;;;;;;;8.77;5.20;;;;;;;0.66;65.11;96151.09;5096211;28;20020;-68
2022/03/03 00:45:43;;;;;;;5.90;4.40;;;;;;;0.63;65.32;96149.38;5096172;28;20501;-68
2022/03/03 00:48:09;;;;;;;8.45;5.30;;;;;;;0.60;65.91;96156.28;5095916;28;20020;-65
2022/03/03 00:50:34;;;;;;;8.70;5.22;;;;;;;0.53;65.55;96147.72;5095960;28;20020;-66
2022/03/03 00:53:00;;;;;;;7.38;5.32;;;;;;;0.58;65.77;96150.28;5096028;28;20534;-66
2022/03/03 00:55:26;;;;;;;7.25;4.65;;;;;;;0.69;65.90;96143.34;5095936;28;20024;-67
2022/03/03 00:57:52;;;;;;;8.85;5.43;;;;;;;0.71;66.03;96136.50;5095914;28;20028;-67
2022/03/03 01:00:20;;;;;;;7.63;5.60;;;;;;;0.68;65.25;96131.34;5095678;28;20024;-67
2022/03/03 01:02:47;;;;;;;6.50;4.80;;;;;;;0.67;65.69;96129.66;5095771;28;20024;-67
2022/03/03 01:05:12;;;;;;;8.20;5.05;;;;;;;0.69;65.21;96127.06;5095733;28;20012;-68
2022/03/03 01:07:38;;;;;;;10.13;5.72;;;;;;;0.61;65.25;96121.94;5095703;28;20389;-65
2022/03/03 01:10:06;;;;;;;7.55;5.30;;;;;;;0.64;65.11;96124.50;5095678;28;20028;-65
2022/03/03 01:12:31;;;;;;;9.82;5.85;;;;;;;0.67;64.84;96119.34;5095664;28;20017;-65
2022/03/03 01:14:57;;;;;;;7.82;5.80;;;;;;;0.65;64.84;96121.06;5095484;28;20389;-69
2022/03/03 01:17:23;;;;;;;7.38;5.22;;;;;;;0.61;65.03;96120.22;5095354;28;20020;-68
2022/03/03 01:19:48;;;;;;;7.25;5.15;;;;;;;0.63;64.34;96113.34;5095496;28;20024;-65
2022/03/03 01:22:16;;;;;;;8.32;5.25;;;;;;;0.59;64.45;96105.66;5095074;28;20054;-64
2022/03/03 01:24:42;;;;;;;8.73;5.90;;;;;;;0.54;64.42;96105.66;5095345;28;20024;-65
2022/03/03 01:27:07;;;;;;;7.68;5.72;;;;;;;0.53;64.63;96110.81;5095223;28;20020;-65
2022/03/03 01:29:33;;;;;;;7.28;5.28;;;;;;;0.57;65.11;96104.81;5095389;28;20115;-68
2022/03/03 01:31:59;;;;;;;6.53;5.13;;;;;;;0.50;64.96;96102.28;5095134;28;20028;-65
2022/03/03 01:34:24;;;;;;;8.13;5.82;;;;;;;0.50;65.49;96103.97;5094580;28;20103;-66
2022/03/03 01:36:50;;;;;;;9.18;5.88;;;;;;;0.52;65.15;96101.41;5095100;28;20020;-67
2022/03/03 01:39:15;;;;;;;10.02;5.85;;;;;;;0.61;65.18;96093.63;5095046;28;20462;-68
2022/03/03 01:41:41;;;;;;;9.55;6.18;;;;;;;0.57;65.30;96092.78;5094975;28;20024;-68
2022/03/03 01:44:08;;;;;;;7.82;5.38;;;;;;;0.57;65.16;96087.63;5095041;28;20024;-68
2022/03/03 01:46:34;;;;;;;7.82;5.43;;;;;;;0.46;65.26;96074.84;5094955;28;20027;-68
2022/03/03 01:49:00;;;;;;;7.07;5.35;;;;;;;0.47;65.21;96092.00;5094781;28;20378;-69
2022/03/03 01:51:26;;;;;;;9.57;6.40;;;;;;;0.52;64.72;96079.09;5094815;28;20066;-65
2022/03/03 01:53:51;;;;;;;10.75;6.25;;;;;;;0.56;64.88;96079.91;5094862;28;20389;-66
2022/03/03 01:56:18;;;;;;;7.85;5.53;;;;;;;0.46;64.73;96079.13;5094751;28;20558;-66
2022/03/03 01:58:44;;;;;;;9.32;6.32;;;;;;;0.43;65.12;96092.00;5094778;28;20256;-68
2022/03/03 02:01:10;;;;;;;9.95;6.03;;;;;;;0.50;64.75;96088.53;5094667;28;20390;-65
2022/03/03 02:03:36;;;;;;;9.88;6.10;;;;;;;0.50;64.97;96086.81;5094669;28;20021;-68
2022/03/03 02:06:02;;;;;;;8.18;5.97;;;;;;;0.52;65.17;96084.25;5094659;28;20024;-68
2022/03/03 02:08:28;;;;;;;7.82;5.75;;;;;;;0.47;65.49;96084.25;5094474;28;20085;-68
2022/03/03 02:10:55;;;;;;;13.13;6.30;;;;;;;0.43;65.46;96086.84;5094442;28;20081;-66
2022/03/03 02:13:20;;;;;;;8.88;6.07;;;;;;;0.39;65.32;96090.31;5094433;28;20020;-69
2022/03/03 02:15:51;;;;;;;8.88;5.40;;;;;;;0.43;65.16;96089.44;5094345;28;20028;-68
2022/03/03 02:18:16;;;;;;;7.65;5.63;;;;;;;0.45;65.25;96078.25;5094362;28;20359;-65
2022/03/03 02:20:42;;;;;;;9.50;6.20;;;;;;;0.41;65.59;96086.00;5094002;28;20110;-66
2022/03/03 02:23:07;;;;;;;9.32;5.90;;;;;;;0.43;65.49;96084.28;5094313;28;20474;-68
2022/03/03 02:25:33;;;;;;;7.80;5.90;;;;;;;0.45;65.52;96087.72;5094281;28;20105;-68
2022/03/03 02:27:58;;;;;;;7.97;5.05;;;;;;;0.45;65.38;96082.56;5094119;28;20024;-67
2022/03/03 02:30:24;;;;;;;9.32;6.05;;;;;;;0.44;65.59;96081.72;5094191;28;20548;-65
2022/03/03 02:32:49;;;;;;;8.18;6.03;;;;;;;0.40;65.42;96087.75;5094143;28;20047;-67
2022/03/03 02:35:15;;;;;;;8.80;5.63;;;;;;;0.39;66.03;96088.56;5094000;28;20492;-67
2022/03/03 02:37:44;;;;;;;8.90;5.97;;;;;;;0.38;65.58;96092.03;5093978;28;20020;-66
2022/03/03 02:40:13;;;;;;;8.02;5.30;;;;;;;0.37;65.62;96098.88;5093953;28;20484;-65
2022/03/03 02:42:39;;;;;;;10.68;6.50;;;;;;;0.40;65.99;96097.16;5093985;28;20028;-65
2022/03/03 02:45:06;;;;;;;8.13;6.07;;;;;;;0.29;65.55;96092.94;5093777;28;20020;-67
2022/03/03 02:47:31;;;;;;;7.35;5.72;;;;;;;0.32;65.87;96090.34;5092985;28;20020;-69
2022/03/03 02:49:57;;;;;;;7.28;5.50;;;;;;;0.34;65.88;96095.47;5093736;28;20073;-66
2022/03/03 02:52:24;;;;;;;10.00;5.90;;;;;;;0.37;65.95;96098.03;5093645;28;20020;-66
2022/03/03 02:54:49;;;;;;;9.43;6.03;;;;;;;0.37;65.91;96091.16;5093681;28;20428;-69
2022/03/03 03:00:00;;;;;;;8.88;5.72;;;;;;;0.44;65.70;96086.00;5094000;28;20035;-65
2022/03/03 03:02:25;;;;;;;6.57;5.35;;;;;;;0.42;65.69;96078.28;5093438;28;20024;-68
2022/03/03 03:04:51;;;;;;;8.77;5.47;;;;;;;0.47;65.43;96081.69;5093515;28;20024;-65
2022/03/03 03:07:16;;;;;;;8.65;5.88;;;;;;;0.52;65.93;96079.09;5093468;28;20473;-65
2022/03/03 03:09:42;;;;;;;8.88;6.05;;;;;;;0.52;65.28;96084.25;5093420;28;20012;-66
2022/03/03 03:12:08;;;;;;;6.78;5.63;;;;;;;0.46;65.42;96077.41;5093419;28;20101;-67
2022/03/03 03:14:34;;;;;;;7.78;5.80;;;;;;;0.45;65.67;96075.69;5093421;28;20028;-65
2022/03/03 03:17:00;;;;;;;8.63;6.18;;;;;;;0.41;65.88;96073.13;5093315;28;20034;-68
2022/03/03 03:19:26;;;;;;;9.43;5.95;;;;;;;0.35;65.92;96074.03;5093342;28;20028;-68
2022/03/03 03:21:51;;;;;;;9.45;5.95;;;;;;;0.44;66.08;96070.53;5092910;28;20055;-66
2022/03/03 03:24:17;;;;;;;10.35;6.82;;;;;;;0.46;66.41;96069.69;5093244;28;20047;-66
2022/03/03 03:26:42;;;;;;;9.35;6.22;;;;;;;0.53;66.02;96078.22;5093391;28;20024;-69
2022/03/03 03:29:08;;;;;;;11.45;6.20;;;;;;;0.49;66.04;96077.38;5093196;28;20028;-66
2022/03/03 03:31:33;;;;;;;9.07;6.07;;;;;;;0.52;65.70;96070.50;5093248;28;20031;-67
2022/03/03 03:33:59;;;;;;;9.18;6.10;;;;;;;0.55;66.04;96075.63;5093002;28;20028;-68
2022/03/03 03:36:24;;;;;;;9.15;6.22;;;;;;;0.47;66.35;96066.25;5093102;28;20017;-67
2022/03/03 03:38:50;;;;;;;8.68;6.03;;;;;;;0.52;65.46;96073.94;5093022;28;20020;-67
2022/03/03 03:41:16;;;;;;;9.35;6.07;;;;;;;0.56;65.74;96075.63;5092928;28;20070;-68
2022/03/03 03:43:41;;;;;;;7.68;5.90;;;;;;;0.51;65.46;96072.22;5093075;28;20095;-68
2022/03/03 03:46:07;;;;;;;9.43;6.20;;;;;;;0.55;65.62;96070.50;5093026;28;20103;-67
2022/03/03 03:48:32;;;;;;;6.53;5.15;;;;;;;0.48;65.71;96067.13;5092871;28;20161;-69
2022/03/03 03:50:58;;;;;;;8.63;5.95;;;;;;;0.48;65.91;96074.84;5092983;28;20055;-68
2022/03/03 03:53:24;;;;;;;10.05;6.20;;;;;;;0.49;65.43;96074.78;5092988;28;20122;-64
2022/03/03 03:55:50;;;;;;;8.82;6.50;;;;;;;0.41;65.64;96066.28;5092944;28;20024;-66
2022/03/03 03:58:16;;;;;;;9.70;6.18;;;;;;;0.40;65.92;96072.28;5094864;28;20103;-66
2022/03/03 04:00:42;;;;;;;10.25;6.78;;;;;;;0.40;65.53;96068.84;5096842;28;20048;-69
2022/03/03 04:03:08;;;;;;;9.35;6.40;;;;;;;0.37;65.54;96073.16;5096979;28;20048;-68
2022/03/03 04:05:35;;;;;;;8.45;6.00;;;;;;;0.34;65.50;96064.59;5097091;28;20032;-68
2022/03/03 04:08:01;;;;;;;8.25;6.35;;;;;;;0.34;65.84;96074.91;5096905;28;20016;-66
2022/03/03 04:10:28;;;;;;;9.02;6.45;;;;;;;0.24;65.90;96074.09;5096763;28;20020;-68
2022/03/03 04:12:55;;;;;;;8.40;6.07;;;;;;;0.29;66.03;96074.91;5096773;28;20055;-66
2022/03/03 04:15:21;;;;;;;10.68;7.03;;;;;;;0.19;66.47;96071.53;5096816;28;20073;-69
2022/03/03 04:17:48;;;;;;;8.25;6.40;;;;;;;0.21;66.48;96068.97;5096773;28;20020;-68
2022/03/03 04:20:15;;;;;;;9.48;6.60;;;;;;;0.26;66.41;96069.78;5096287;28;20044;-69
2022/03/03 04:22:41;;;;;;;8.73;6.70;;;;;;;0.17;66.18;96069.81;5096547;28;20169;-65
2022/03/03 04:25:10;;;;;;;8.40;6.07;;;;;;;0.07;66.61;96067.31;5096451;28;20535;-65
2022/03/03 04:27:37;;;;;;;10.63;6.45;;;;;;;0.09;66.54;96057.84;5096434;28;20090;-68
2022/03/03 04:30:09;;;;;;;10.18;6.50;;;;;;;0.12;66.76;96057.00;5096659;28;20028;-66
2022/03/03 04:32:35;;;;;;;9.68;6.47;;;;;;;0.07;66.81;96054.44;5096554;28;20043;-70
2022/03/03 04:35:01;;;;;;;8.57;6.20;;;;;;;0.07;66.84;96051.00;5096379;28;20031;-66
2022/03/03 04:37:27;;;;;;;7.95;6.18;;;;;;;0.03;66.62;96060.44;5096249;28;20020;-66
2022/03/03 04:39:52;;;;;;;10.00;6.40;;;;;;;0.05;66.89;96058.72;5096406;28;20093;-66
2022/03/03 04:42:18;;;;;;;9.23;6.45;;;;;;;-0.01;67.00;96059.59;5096256;28;20028;-68
2022/03/03 04:44:44;;;;;;;10.52;6.80;;;;;;;-0.04;66.73;96057.03;5096210;28;20500;-65
2022/03/03 04:47:09;;;;;;;11.32;7.00;;;;;;;-0.07;67.01;96063.91;5096081;28;20030;-68
2022/03/03 04:49:35;;;;;;;10.93;6.85;;;;;;;-0.07;67.17;96061.34;5096036;28;20028;-65
2022/03/03 04:52:00;;;;;;;8.85;6.60;;;;;;;-0.07;66.77;96061.34;5096118;28;20414;-65
2022/03/03 04:54:26;;;;;;;10.73;7.60;;;;;;;-0.11;67.25;96059.63;5096010;28;20435;-69
2022/03/03 04:56:54;;;;;;;10.32;6.22;;;;;;;-0.09;67.08;96051.06;5096066;28;20032;-66
2022/03/03 04:59:20;;;;;;;10.95;7.30;;;;;;;-0.08;67.48;96057.06;5095860;28;20020;-67
2022/03/03 05:01:45;;;;;;;11.73;6.55;;;;;;;-0.11;66.81;96052.78;5095731;28;20081;-68
2022/03/03 05:04:11;;;;;;;10.77;7.05;;;;;;;-0.09;66.89;96051.06;5095823;28;20024;-67
2022/03/03 05:06:37;;;;;;;10.35;7.00;;;;;;;-0.10;66.78;96051.06;5095693;28;20034;-69
2022/03/03 05:09:02;;;;;;;11.68;6.72;;;;;;;-0.04;66.76;96040.75;5094952;28;20024;-68
2022/03/03 05:11:28;;;;;;;9.57;6.85;;;;;;;-0.02;66.51;96041.63;5095575;28;20036;-68
2022/03/03 05:13:54;;;;;;;10.10;6.68;;;;;;;-0.03;66.32;96051.03;5095698;28;20024;-69
2022/03/03 05:16:20;;;;;;;10.90;6.53;;;;;;;0.02;65.95;96048.44;5095491;28;20466;-67
2022/03/03 05:18:45;;;;;;;9.40;6.72;;;;;;;0.10;65.62;96049.28;5095500;28;20070;-69
2022/03/03 05:21:11;;;;;;;8.15;5.85;;;;;;;0.18;65.26;96049.22;5095250;28;20040;-66
2022/03/03 05:23:37;;;;;;;11.73;6.57;;;;;;;0.26;64.95;96056.91;5095403;28;20020;-65
2022/03/03 05:26:02;;;;;;;10.82;6.90;;;;;;;0.25;65.01;96055.22;5095340;28;20020;-68
2022/03/03 05:28:28;;;;;;;10.55;6.70;;;;;;;0.33;64.70;96056.00;5095375;28;20089;-69
2022/03/03 05:30:54;;;;;;;11.43;6.47;;;;;;;0.37;64.15;96051.72;5095428;28;20462;-68
2022/03/03 05:33:20;;;;;;;9.93;6.70;;;;;;;0.45;64.03;96052.50;5095391;28;20028;-69
2022/03/03 05:35:48;;;;;;;10.23;7.20;;;;;;;0.47;63.78;96053.38;5095210;28;20497;-68
2022/03/03 05:38:13;;;;;;;9.45;7.03;;;;;;;0.50;63.30;96061.09;5095063;28;20058;-67
2022/03/03 05:40:39;;;;;;;9.57;6.40;;;;;;;0.52;63.33;96060.22;5095029;28;20025;-68
2022/03/03 05:43:04;;;;;;;9.18;6.07;;;;;;;0.60;63.24;96054.16;5095038;28;20020;-66
2022/03/03 05:45:34;;;;;;;8.10;6.00;;;;;;;0.68;63.36;96051.53;5095053;28;20439;-69
2022/03/03 05:48:00;;;;;;;8.20;6.25;;;;;;;0.72;63.13;96052.38;5095033;28;20496;-67
2022/03/03 05:50:26;;;;;;;8.98;6.32;;;;;;;0.80;63.47;96052.31;5094943;28;20062;-69
2022/03/03 05:52:54;;;;;;;8.63;6.05;;;;;;;1.33;63.33;96054.47;5094855;28;20032;-66
2022/03/03 05:55:20;;;;;;;8.10;5.65;;;;;;;2.69;60.59;96053.75;5094779;28;20478;-65
2022/03/03 05:57:49;;;;;;;8.60;5.22;;;;;;;4.42;55.55;96058.47;5094781;28;20024;-69
2022/03/03 06:00:17;;;;;;;6.55;5.25;;;;;;;6.22;51.06;96048.06;5094635;28;20374;-68
2022/03/03 06:02:51;;;;;;;8.30;5.07;;;;;;;7.87;46.04;96047.25;5094512;28;20103;-65
2022/03/03 06:05:24;;;;;;;7.50;4.80;;;;;;;9.23;42.42;96043.94;5094510;28;20386;-67
2022/03/03 06:08:01;;;;;;;5.70;4.88;;;;;;;10.44;40.50;96049.31;5094599;28;20103;-66
2022/03/03 06:10:32;;;;;;;5.88;4.60;;;;;;;11.75;37.79;96054.47;5094655;28;20440;-66
2022/03/03 06:13:35;;;;;;;7.38;5.53;;;;;;;12.46;34.46;96049.16;5094610;28;20028;-69
2022/03/03 06:16:02;;;;;;;8.95;5.70;;;;;;;13.32;33.36;96046.28;5081599;28;20028;-66
2022/03/03 06:18:31;;;;;;;6.43;5.25;;;;;;;14.28;31.25;96059.13;5094350;28;20028;-67
2022/03/03 06:20:58;;;;;;;8.50;5.93;;;;;;;15.27;30.24;96053.91;5093867;28;20094;-65
2022/03/03 06:23:24;;;;;;;7.55;5.63;;;;;;;15.37;29.50;96045.41;5094236;28;20031;-67
2022/03/03 06:26:06;;;;;;;5.93;4.88;;;;;;;15.75;28.35;96055.22;5094237;28;20386;-68
2022/03/03 06:28:33;;;;;;;8.63;5.38;;;;;;;16.53;27.38;96057.91;5094293;28;20027;-66
2022/03/03 06:30:59;;;;;;;8.07;6.00;;;;;;;17.22;26.18;96054.94;5094224;28;20539;-67
2022/03/03 06:33:25;;;;;;;7.63;5.88;;;;;;;17.42;25.54;96050.84;5094019;28;20020;-65
2022/03/03 06:35:51;;;;;;;7.03;5.25;;;;;;;17.20;25.63;96057.69;5093979;28;20504;-67
2022/03/03 06:38:17;;;;;;;6.97;5.68;;;;;;;17.20;25.93;96051.56;5093981;28;20035;-66
2022/03/03 06:40:43;;;;;;;7.18;6.00;;;;;;;15.02;27.62;96060.75;5093884;28;20052;-65
2022/03/03 06:43:08;;;;;;;9.13;5.32;;;;;;;14.42;28.73;96062.66;5093911;28;20120;-64
2022/03/03 06:45:34;;;;;;;6.05;5.00;;;;;;;14.59;29.28;96066.91;5093963;28;20016;-65
2022/03/03 06:48:02;;;;;;;8.25;4.85;;;;;;;15.11;27.69;96071.69;5093830;28;20091;-66
2022/03/03 06:50:28;;;;;;;5.97;5.00;;;;;;;15.51;26.78;96066.44;5093735;28;20032;-64
2022/03/03 06:52:55;;;;;;;9.02;5.32;;;;;;;15.35;26.85;96071.84;5093709;28;20032;-66
2022/03/03 06:55:24;;;;;;;6.45;4.80;;;;;;;15.86;26.65;96078.22;5093705;28;20381;-68
2022/03/03 06:57:54;;;;;;;7.53;5.15;;;;;;;16.23;26.36;96085.50;5093869;28;20028;-64
2022/03/03 07:00:23;;;;;;;6.57;4.63;;;;;;;17.20;24.77;96076.19;5093626;28;20032;-65
2022/03/03 07:02:50;;;;;;;5.65;5.05;;;;;;;17.49;25.17;96081.13;5093402;28;20497;-67
2022/03/03 07:05:16;;;;;;;6.18;5.18;;;;;;;17.01;24.79;96092.50;5093436;28;20024;-67
2022/03/03 07:07:45;;;;;;;5.15;4.40;;;;;;;17.26;24.87;96096.91;5075394;28;20016;-64
2022/03/03 07:10:13;;;;;;;6.60;4.75;;;;;;;15.96;25.93;96094.34;5093406;28;20470;-65
2022/03/03 07:12:40;;;;;;;7.18;5.50;;;;;;;14.93;27.22;96087.66;5093442;28;20162;-64
2022/03/03 07:15:07;;;;;;;8.90;5.85;;;;;;;13.98;28.91;96090.72;5093479;28;20523;-64
2022/03/03 07:17:51;;;;;;;8.77;5.35;;;;;;;12.26;30.46;96095.63;5093274;28;20030;-66
2022/03/03 07:20:27;;;;;;;7.53;5.57;;;;;;;12.52;31.54;96092.56;5092993;28;20068;-66
2022/03/03 07:23:07;;;;;;;8.38;5.53;;;;;;;12.48;31.40;96101.53;5093253;28;20043;-69
2022/03/03 07:25:43;;;;;;;6.93;5.45;;;;;;;12.64;31.03;96088.44;5093394;28;20107;-64
2022/03/03 07:28:10;;;;;;;7.22;5.80;;;;;;;12.58;32.39;96100.13;5093314;28;20036;-66
2022/03/03 07:30:41;;;;;;;8.93;5.43;;;;;;;12.77;31.63;96102.59;5093224;28;20032;-64
2022/03/03 07:33:12;;;;;;;7.22;5.72;;;;;;;12.15;32.45;96097.09;5092840;28;20039;-64
2022/03/03 07:35:41;;;;;;;6.88;5.43;;;;;;;12.04;33.00;96100.28;5093165;28;20500;-67
2022/03/03 07:38:14;;;;;;;7.30;6.00;;;;;;;12.15;32.93;96087.47;5093168;28;20466;-64
2022/03/03 07:40:42;;;;;;;7.93;6.07;;;;;;;11.80;33.66;96090.09;5093089;28;20051;-68
2022/03/03 07:43:09;;;;;;;7.28;6.13;;;;;;;11.96;33.67;96096.28;5093059;28;20050;-64
2022/03/03 07:45:34;;;;;;;7.22;6.00;;;;;;;11.55;33.94;96094.78;5092946;28;20516;-67
2022/03/03 07:48:00;;;;;;;7.80;6.25;;;;;;;11.44;34.57;96097.91;5093010;28;20051;-66
2022/03/03 07:50:27;;;;;;;7.50;5.63;;;;;;;10.55;35.90;96101.16;5092908;28;20031;-66
2022/03/03 07:52:54;;;;;;;6.75;5.35;;;;;;;9.83;36.57;96110.28;5092860;28;20445;-63
2022/03/03 07:55:21;;;;;;;7.15;5.40;;;;;;;9.28;37.54;96109.00;5092896;28;20060;-65
2022/03/03 07:58:00;;;;;;;6.47;5.57;;;;;;;8.77;38.22;96108.34;5092923;28;20035;-66
2022/03/03 08:00:31;;;;;;;8.60;5.30;;;;;;;8.56;39.51;96108.25;5093047;28;20024;-66
2022/03/03 08:03:08;;;;;;;7.97;5.90;;;;;;;8.34;39.70;96111.63;5092870;28;20027;-67
2022/03/03 08:05:35;;;;;;;8.25;6.10;;;;;;;8.67;39.66;96105.25;5092853;28;20458;-64
2022/03/03 08:08:03;;;;;;;6.18;5.03;;;;;;;9.09;39.21;96106.25;5092887;28;20043;-65
2022/03/03 08:10:30;;;;;;;7.15;5.68;;;;;;;8.96;40.56;96104.13;5092812;28;20024;-64
2022/03/03 08:12:57;;;;;;;6.20;5.05;;;;;;;9.42;39.37;96097.16;5092708;28;20020;-65
2022/03/03 08:15:24;;;;;;;6.90;5.30;;;;;;;9.70;38.77;96098.66;5092704;28;20021;-65
2022/03/03 08:17:52;;;;;;;11.27;5.65;;;;;;;9.79;37.47;96098.28;5092637;28;20607;-67
2022/03/03 08:20:19;;;;;;;6.90;5.70;;;;;;;9.98;38.13;96094.84;5092358;28;20055;-64
2022/03/03 08:22:46;;;;;;;7.15;5.38;;;;;;;10.16;39.23;96100.19;5092732;28;20031;-67
2022/03/03 08:25:12;;;;;;;6.63;4.85;;;;;;;10.02;37.25;96093.81;5092907;28;20150;-66
2022/03/03 08:27:40;;;;;;;6.97;5.70;;;;;;;9.91;38.57;96086.44;5092655;28;20028;-63
2022/03/03 08:30:08;;;;;;;7.50;5.90;;;;;;;9.85;37.79;96095.38;5092554;28;20398;-66
2022/03/03 08:32:38;;;;;;;6.53;5.35;;;;;;;9.54;38.22;96091.44;5092546;28;20110;-66
2022/03/03 08:35:12;;;;;;;9.15;6.30;;;;;;;9.94;38.38;96098.53;5092621;28;20366;-67
2022/03/03 08:37:43;;;;;;;7.97;6.40;;;;;;;10.02;38.95;96098.22;5092744;28;20045;-63
2022/03/03 08:40:16;;;;;;;7.97;5.70;;;;;;;9.86;39.07;96101.47;5092463;28;20028;-64
2022/03/03 08:42:48;;;;;;;7.95;6.25;;;;;;;10.03;38.82;96110.34;5092485;28;20032;-65
2022/03/03 08:45:18;;;;;;;8.40;5.80;;;;;;;9.97;38.14;96101.84;5076050;28;20397;-65
2022/03/03 08:47:54;;;;;;;8.75;5.72;;;;;;;9.76;38.20;96102.75;5096183;28;20043;-67
2022/03/03 08:50:21;;;;;;;8.45;6.18;;;;;;;9.46;38.38;96112.63;5096157;28;20029;-65
2022/03/03 08:52:47;;;;;;;8.50;6.03;;;;;;;9.08;39.18;96109.78;5096038;28;20028;-67
2022/03/03 08:55:14;;;;;;;7.85;5.88;;;;;;;8.61;40.38;96111.53;5095919;28;20081;-67
2022/03/03 08:57:41;;;;;;;7.43;5.32;;;;;;;8.58;40.99;96114.28;5095990;28;20020;-64
2022/03/03 09:00:09;;;;;;;7.38;5.30;;;;;;;8.50;40.48;96111.91;5095912;28;20020;-65
2022/03/03 09:02:35;;;;;;;7.03;5.95;;;;;;;8.35;39.75;96118.53;5095601;28;20032;-67
2022/03/03 09:05:02;;;;;;;7.45;5.40;;;;;;;8.09;40.81;96121.16;5095858;28;20024;-64
2022/03/03 09:07:28;;;;;;;7.07;5.53;;;;;;;8.20;40.58;96122.53;5095796;28;20027;-66
2022/03/03 09:09:54;;;;;;;7.43;5.80;;;;;;;8.34;42.00;96120.25;5095605;28;20513;-65
2022/03/03 09:12:20;;;;;;;7.63;5.40;;;;;;;8.44;41.81;96115.59;5095587;28;20521;-66
2022/03/03 09:14:46;;;;;;;8.63;5.82;;;;;;;8.63;40.78;96104.50;5095718;28;20062;-67
2022/03/03 09:17:11;;;;;;;6.28;5.20;;;;;;;8.90;40.21;96114.81;5095587;28;20028;-63
2022/03/03 09:19:37;;;;;;;9.10;4.97;;;;;;;8.95;41.37;96106.81;5095444;28;20024;-66
2022/03/03 09:22:04;;;;;;;6.70;5.13;;;;;;;9.34;38.57;96098.31;5095188;28;20498;-66
2022/03/03 09:24:30;;;;;;;6.60;4.88;;;;;;;9.08;38.63;96123.69;5095453;28;20043;-65
2022/03/03 09:26:56;;;;;;;6.95;4.88;;;;;;;8.75;39.86;96110.16;5095351;28;20109;-67
2022/03/03 09:29:23;;;;;;;6.50;5.15;;;;;;;8.33;40.03;96121.19;5095251;28;20082;-66
2022/03/03 09:31:49;;;;;;;7.90;5.28;;;;;;;7.92;41.58;96108.69;5095307;28;20028;-66
2022/03/03 09:34:16;;;;;;;7.05;5.43;;;;;;;7.64;43.62;96107.03;5095183;28;20091;-67
2022/03/03 09:36:41;;;;;;;8.02;5.43;;;;;;;7.68;43.55;96119.03;5095265;28;20381;-67
2022/03/03 09:39:07;;;;;;;13.32;5.75;;;;;;;7.50;42.15;96114.44;5095112;28;20095;-63
2022/03/03 09:41:33;;;;;;;9.18;5.85;;;;;;;7.39;42.83;96106.97;5094960;28;20412;-67
2022/03/03 09:43:59;;;;;;;9.38;5.43;;;;;;;7.62;42.38;96110.59;5094939;28;20028;-65
2022/03/03 09:46:25;;;;;;;8.88;5.45;;;;;;;7.97;42.98;96116.34;5094928;28;20032;-64
2022/03/03 09:48:51;;;;;;;8.20;5.32;;;;;;;8.21;41.82;96124.22;5094965;28;20031;-64
2022/03/03 09:51:18;;;;;;;9.30;5.60;;;;;;;8.11;40.73;96115.03;5094934;28;20020;-66
2022/03/03 09:53:49;;;;;;;9.45;5.65;;;;;;;8.24;40.76;96115.47;5094906;28;20101;-64
2022/03/03 09:56:15;;;;;;;7.30;5.60;;;;;;;8.26;42.59;96111.88;5094352;28;20035;-63
2022/03/03 09:58:40;;;;;;;6.72;4.47;;;;;;;8.27;41.01;96110.97;5094865;28;20020;-66
2022/03/03 10:01:07;;;;;;;6.45;4.72;;;;;;;8.13;40.64;96101.03;5094636;28;20039;-64
2022/03/03 10:03:34;;;;;;;6.85;4.50;;;;;;;8.07;41.05;96111.69;5094670;28;20027;-63
2022/03/03 10:06:01;;;;;;;6.57;4.85;;;;;;;7.97;40.67;96105.94;5094617;28;20103;-65
2022/03/03 10:08:29;;;;;;;7.97;5.25;;;;;;;7.79;41.22;96102.19;5094592;28;20036;-67
2022/03/03 10:11:00;;;;;;;7.00;5.40;;;;;;;7.56;42.17;96103.84;5094417;28;20466;-64
2022/03/03 10:13:48;;;;;;;7.32;5.13;;;;;;;7.48;42.38;96100.63;5094264;28;20043;-65
2022/03/03 10:16:29;;;;;;;6.25;4.68;;;;;;;7.26;40.97;96093.50;5094336;28;20036;-63
2022/03/03 10:19:04;;;;;;;6.03;4.07;;;;;;;7.06;42.01;96097.59;5094515;28;20081;-65
2022/03/03 10:21:37;;;;;;;7.45;4.90;;;;;;;7.05;41.98;96088.09;5094005;28;20047;-67
2022/03/03 10:24:25;;;;;;;8.30;4.70;;;;;;;7.09;42.37;96097.50;5094214;28;20082;-67
2022/03/03 10:27:03;;;;;;;5.78;4.43;;;;;;;7.01;42.24;96089.91;5094397;28;20040;-64
2022/03/03 10:29:30;;;;;;;5.35;4.47;;;;;;;6.93;44.31;96090.16;5094237;28;20028;-66
2022/03/03 10:32:02;;;;;;;6.97;4.97;;;;;;;6.88;42.22;96089.47;5094210;28;20054;-64
2022/03/03 10:34:33;;;;;;;6.97;4.75;;;;;;;6.87;42.42;96082.56;5094069;28;20032;-65
2022/03/03 10:37:03;;;;;;;7.57;4.47;;;;;;;6.74;43.01;96089.03;5093965;28;20027;-67
2022/03/03 10:39:48;;;;;;;7.03;4.38;;;;;;;6.54;43.23;96083.50;5094010;28;20017;-67
2022/03/03 10:42:19;;;;;;;4.78;3.83;;;;;;;6.50;41.27;96079.28;5093889;28;20410;-64
2022/03/03 10:44:48;;;;;;;6.15;4.85;;;;;;;6.64;41.76;96081.50;5093921;28;20473;-63
2022/03/03 10:47:24;;;;;;;5.10;4.13;;;;;;;6.70;41.98;96083.91;5093838;28;20116;-66
2022/03/03 10:49:53;;;;;;;6.13;4.70;;;;;;;6.77;42.02;96075.94;5093789;28;20032;-65
2022/03/03 10:52:25;;;;;;;4.72;4.22;;;;;;;6.82;41.63;96072.31;5093719;28;20043;-66
2022/03/03 10:55:07;;;;;;;7.10;4.47;;;;;;;6.82;42.55;96071.44;5093769;28;20362;-66
2022/03/03 10:57:38;;;;;;;8.07;4.15;;;;;;;6.82;42.49;96074.91;5093572;28;20032;-65
2022/03/03 11:00:12;;;;;;;8.15;5.35;;;;;;;6.85;41.88;96070.47;5093649;28;20035;-64
2022/03/03 11:02:41;;;;;;;5.70;4.68;;;;;;;6.78;41.78;96082.84;5093531;28;20056;-67
2022/03/03 11:05:09;;;;;;;8.82;4.55;;;;;;;6.60;40.53;96082.50;5093514;28;20016;-67
2022/03/03 11:07:36;;;;;;;6.22;4.53;;;;;;;6.64;40.98;96084.09;5092658;28;20028;-66
2022/03/03 11:10:04;;;;;;;5.72;4.20;;;;;;;6.63;40.99;96081.53;5093411;28;20029;-68
2022/03/03 11:12:29;;;;;;;11.88;3.90;;;;;;;6.59;41.61;96082.53;5093370;28;20012;-66
2022/03/03 11:14:57;;;;;;;5.35;4.20;;;;;;;6.60;40.56;96082.50;5093349;28;20024;-65
2022/03/03 11:17:23;;;;;;;5.00;3.92;;;;;;;6.52;40.44;96074.91;5093417;28;20020;-66
2022/03/03 11:19:52;;;;;;;5.55;4.05;;;;;;;6.49;41.57;96079.34;5093175;28;20146;-66
2022/03/03 11:22:19;;;;;;;5.78;4.22;;;;;;;6.52;42.38;96071.44;5092864;28;20044;-66
2022/03/03 11:24:45;;;;;;;5.63;4.07;;;;;;;6.62;42.15;96074.66;5093271;28;20036;-67
2022/03/03 11:27:11;;;;;;;5.43;4.25;;;;;;;6.49;43.43;96077.59;5093110;28;20528;-67
2022/03/03 11:29:40;;;;;;;6.95;4.90;;;;;;;6.42;43.38;96073.47;5093145;28;20032;-67
2022/03/03 11:32:08;;;;;;;6.78;4.40;;;;;;;6.50;41.95;96078.47;5093111;28;20111;-64
2022/03/03 11:34:34;;;;;;;5.88;4.40;;;;;;;6.50;42.77;96070.66;5075063;28;20046;-67
2022/03/03 11:37:19;;;;;;;8.65;4.55;;;;;;;6.52;43.29;96072.31;5093309;28;20024;-65
2022/03/03 11:39:52;;;;;;;6.50;4.43;;;;;;;6.59;42.72;96074.75;5093042;28;20116;-64
2022/03/03 11:42:44;;;;;;;7.28;4.90;;;;;;;6.66;43.61;96065.84;5093135;28;20046;-66
2022/03/03 11:45:10;;;;;;;7.82;4.70;;;;;;;6.67;43.66;96067.56;5061606;28;20032;-66